Time;durP1;ratioP1;P1;durP2;ratioP2;P2;SDS_P1;SDS_P2;PMS_P1;PMS_P2;Temp;Humidity;BMP_temperature;BMP_pressure;BME280_temperature;BME280_humidity;BME280_pressure;Samples;Min_cycle;Max_cycle;Signal;HPM_P1;HPM_P2
2022/05/16 00:00:35;;;;;;;5.60;5.10;;;15.20;59.80;;;14.30;61.76;98040.66;5073533;28;20436;-71
2022/05/16 00:03:06;;;;;;;7.90;5.40;;;15.20;60.20;;;14.35;61.69;98042.66;5073680;28;20448;-71
2022/05/16 00:05:35;;;;;;;6.83;5.57;;;15.20;60.20;;;14.27;61.98;98034.84;5074436;28;20477;-71
2022/05/16 00:08:02;;;;;;;5.37;4.87;;;15.20;60.70;;;14.48;61.21;98030.69;5073556;28;20465;-70
2022/05/16 00:10:30;;;;;;;9.50;5.30;;;15.30;60.70;;;14.66;60.63;98037.84;5074902;28;20513;-71
2022/05/16 00:12:59;;;;;;;6.27;5.67;;;15.40;60.80;;;14.64;60.86;98029.09;5073291;28;20997;-72
2022/05/16 00:15:27;;;;;;;5.87;5.27;;;15.40;60.20;;;14.48;60.90;98024.41;5074529;28;20539;-72
2022/05/16 00:17:54;;;;;;;6.30;5.77;;;15.30;59.90;;;14.33;61.17;98025.78;5073366;28;20464;-72
2022/05/16 00:20:22;;;;;;;7.00;5.17;;;15.30;60.10;;;14.28;61.52;98026.47;5074716;28;20436;-72
2022/05/16 00:22:49;;;;;;;6.03;5.50;;;15.20;60.50;;;14.13;61.81;98018.00;5074558;28;20433;-72
2022/05/16 00:25:18;;;;;;;6.07;5.50;;;15.10;60.80;;;14.28;61.69;98020.22;5090094;28;20590;-72
2022/05/16 00:27:47;;;;;;;5.47;4.90;;;15.00;61.00;;;14.32;62.19;98026.81;5073149;28;20533;-72
2022/05/16 00:30:18;;;;;;;6.73;5.53;;;15.10;61.30;;;14.16;61.64;98017.53;5090144;28;20445;-71
2022/05/16 00:32:48;;;;;;;6.83;6.07;;;15.00;60.90;;;14.09;62.17;98016.81;5090810;28;20433;-70
2022/05/16 00:35:16;;;;;;;6.07;5.50;;;15.00;61.10;;;14.02;61.94;98008.78;5074351;28;20516;-71
2022/05/16 00:37:44;;;;;;;6.47;5.87;;;15.00;61.10;;;14.05;61.95;98005.63;5073704;28;20441;-71
2022/05/16 00:40:13;;;;;;;6.20;5.60;;;15.00;61.10;;;14.06;62.30;98030.88;5074268;28;20509;-70
2022/05/16 00:42:41;;;;;;;7.77;5.90;;;14.90;61.60;;;13.91;62.41;98005.03;5074959;28;20448;-70
2022/05/16 00:45:16;;;;;;;7.10;5.77;;;14.80;61.40;;;13.93;62.46;98018.38;5074496;28;20444;-70
2022/05/16 00:47:43;;;;;;;5.70;5.07;;;14.80;61.50;;;13.90;62.76;98016.13;5074590;28;20499;-72
2022/05/16 00:50:11;;;;;;;5.60;5.10;;;14.80;61.80;;;13.79;63.33;98013.19;5073768;28;20498;-72
2022/05/16 00:52:44;;;;;;;7.27;5.63;;;14.70;62.00;;;13.66;63.37;98007.97;5089856;28;21011;-72
2022/05/16 00:55:15;;;;;;;5.87;5.37;;;14.60;62.00;;;13.63;63.38;98003.03;5074724;28;20443;-72
2022/05/16 00:57:47;;;;;;;6.07;5.57;;;14.60;62.20;;;13.48;63.73;97987.19;5073074;28;20926;-72
2022/05/16 01:00:20;;;;;;;6.43;5.83;;;14.60;62.50;;;13.58;63.81;98001.03;5072661;28;20452;-72
2022/05/16 01:05:45;;;;;;;8.80;6.30;;;14.50;63.30;;;13.57;63.88;97994.78;5017429;28;20458;-70
2022/05/16 01:08:15;;;;;;;7.77;5.50;;;14.50;62.80;;;13.58;63.78;97991.00;5073562;28;20464;-71
2022/05/16 01:10:43;;;;;;;6.70;6.03;;;14.50;63.00;;;13.66;63.73;97991.69;5074178;28;20540;-70
2022/05/16 01:13:11;;;;;;;13.67;6.60;;;14.60;63.30;;;13.72;63.32;98009.75;5073935;28;20518;-70
2022/05/16 01:15:44;;;;;;;6.87;5.90;;;14.60;63.20;;;13.58;63.80;98001.03;5074145;28;20528;-71
2022/05/16 01:18:14;;;;;;;8.53;6.23;;;14.50;63.00;;;13.52;64.32;98010.94;5074008;28;20432;-70
2022/05/16 01:21:01;;;;;;;6.10;5.50;;;14.40;63.50;;;13.48;63.39;97969.03;5073967;28;20482;-71
2022/05/16 01:23:36;;;;;;;7.27;6.33;;;14.50;63.40;;;13.78;62.89;98008.81;5073082;28;20444;-72
2022/05/16 01:26:09;;;;;;;8.30;5.60;;;14.60;63.10;;;13.88;64.24;98006.34;5072338;28;20479;-70
2022/05/16 01:28:36;;;;;;;6.23;5.63;;;14.60;63.70;;;13.54;62.94;97978.94;5073760;28;20970;-70
2022/05/16 01:31:03;;;;;;;6.23;5.73;;;14.60;63.00;;;13.57;63.48;97996.66;5073723;28;20444;-71
2022/05/16 01:33:30;;;;;;;6.03;5.47;;;14.50;63.10;;;13.64;63.99;97996.53;5089267;28;20487;-71
2022/05/16 01:35:58;;;;;;;6.30;5.70;;;14.50;63.70;;;13.54;65.29;97995.22;5089238;28;20924;-70
2022/05/16 01:38:27;;;;;;;5.70;5.13;;;14.50;63.80;;;13.51;63.85;97994.88;5073588;28;20506;-70
2022/05/16 01:40:59;;;;;;;5.90;5.40;;;14.40;63.60;;;13.52;63.71;97993.84;5073521;28;20492;-70
2022/05/16 01:43:30;;;;;;;7.63;5.47;;;14.40;64.10;;;13.39;64.02;97998.38;5073988;28;20449;-70
2022/05/16 01:45:57;;;;;;;7.60;6.37;;;14.30;64.00;;;13.31;64.18;97986.00;5072524;28;20447;-71
2022/05/16 01:48:29;;;;;;;8.10;6.07;;;14.30;64.10;;;13.47;64.16;97997.25;5073451;28;20548;-70
2022/05/16 01:50:59;;;;;;;6.47;5.70;;;14.30;64.30;;;13.32;64.50;97987.63;5072063;28;20474;-70
2022/05/16 01:53:27;;;;;;;7.40;6.17;;;14.20;64.50;;;13.69;63.59;98002.06;5073504;28;20437;-70
2022/05/16 01:55:57;;;;;;;7.60;5.70;;;14.40;64.70;;;13.78;62.98;98008.81;5071850;28;20461;-70
2022/05/16 01:58:25;;;;;;;9.20;6.80;;;14.50;64.50;;;13.24;62.88;97931.00;5089594;28;20435;-70
2022/05/16 02:00:53;;;;;;;6.33;5.60;;;14.50;64.20;;;13.68;63.06;97995.84;5071985;28;20439;-71
2022/05/16 02:03:21;;;;;;;6.83;6.03;;;14.50;64.00;;;13.66;63.30;97994.41;5088936;28;20494;-71
2022/05/16 02:05:48;;;;;;;7.50;6.70;;;14.50;64.00;;;13.58;63.21;97999.16;5073905;28;20442;-70
2022/05/16 02:08:17;;;;;;;8.20;6.03;;;14.40;64.00;;;13.45;63.75;98007.50;5074514;28;20552;-70
2022/05/16 02:10:46;;;;;;;7.63;6.83;;;14.40;64.30;;;13.43;63.90;98002.31;5075370;28;20440;-71
2022/05/16 02:13:16;;;;;;;8.23;6.37;;;14.30;64.70;;;13.22;64.35;97990.09;5093258;28;20919;-71
2022/05/16 02:15:46;;;;;;;7.03;6.43;;;14.20;64.60;;;12.96;65.19;97967.75;5077147;28;20513;-71
2022/05/16 02:18:14;;;;;;;7.07;6.40;;;14.10;64.90;;;13.03;65.34;97984.75;5077639;28;20918;-72
2022/05/16 02:20:42;;;;;;;7.53;6.77;;;14.10;65.20;;;13.06;65.23;97983.47;5083066;28;20440;-70
2022/05/16 02:25:57;;;;;;;7.57;6.63;;;14.00;65.50;;;13.03;65.28;97990.19;5093671;28;20436;-72
2022/05/16 02:28:27;;;;;;;7.20;6.50;;;13.90;65.80;;;13.04;65.34;97986.41;5077340;28;20576;-71
2022/05/16 02:30:56;;;;;;;8.83;6.93;;;13.90;65.90;;;13.00;65.19;97974.38;5075718;28;20477;-72
2022/05/16 02:33:24;;;;;;;8.73;7.13;;;14.00;66.00;;;12.99;65.75;97986.28;5092106;28;20489;-72
2022/05/16 02:35:51;;;;;;;7.83;6.60;;;14.00;66.10;;;12.97;65.99;97980.28;5076852;28;20888;-71
2022/05/16 02:38:21;;;;;;;10.30;7.53;;;13.90;66.20;;;13.01;65.63;97976.03;5076920;28;20462;-71
2022/05/16 02:40:48;;;;;;;7.80;7.10;;;13.90;66.20;;;12.85;66.42;97985.63;5076145;28;20436;-71
2022/05/16 02:43:15;;;;;;;8.97;7.20;;;13.80;66.50;;;12.99;65.47;97983.56;5092886;28;20758;-70
2022/05/16 02:45:44;;;;;;;8.53;7.77;;;13.80;66.60;;;12.92;65.92;97982.03;5075013;28;20460;-71
2022/05/16 02:48:11;;;;;;;8.40;7.60;;;13.80;66.80;;;12.66;66.10;97951.53;5076131;28;20891;-70
2022/05/16 02:50:38;;;;;;;8.57;7.70;;;13.80;66.90;;;12.79;66.31;97973.03;5075041;28;20532;-71
2022/05/16 02:53:07;;;;;;;12.67;7.30;;;13.70;67.10;;;12.70;66.77;97972.53;5076114;28;21000;-70
2022/05/16 02:55:34;;;;;;;16.63;8.77;;;13.70;67.40;;;12.62;67.02;97983.66;5075139;28;20493;-70
2022/05/16 02:58:01;;;;;;;8.77;7.70;;;13.60;67.70;;;12.55;67.00;97969.41;5091687;28;20432;-70
2022/05/16 03:00:29;;;;;;;9.50;7.37;;;13.60;67.80;;;12.55;67.49;97963.97;5075838;28;20981;-70
2022/05/16 03:02:57;;;;;;;7.87;7.10;;;13.60;68.10;;;12.57;67.24;97964.56;5076257;28;20541;-70
2022/05/16 03:05:24;;;;;;;8.80;7.80;;;13.50;68.20;;;12.47;67.82;97968.66;5075919;28;20534;-70
2022/05/16 03:07:52;;;;;;;7.50;6.80;;;13.50;68.30;;;12.41;68.19;97972.28;5075978;28;21027;-70
2022/05/16 03:10:19;;;;;;;10.60;7.20;;;13.50;68.60;;;12.13;68.29;97943.03;5076286;28;20427;-69
2022/05/16 03:12:49;;;;;;;11.07;7.80;;;13.30;69.50;;;12.47;68.60;97965.94;5075983;28;20457;-70
2022/05/16 03:15:17;;;;;;;9.50;7.07;;;13.30;70.10;;;12.75;67.39;97975.34;5091335;28;20474;-69
2022/05/16 03:17:44;;;;;;;7.17;6.47;;;13.50;70.00;;;12.79;66.77;97964.88;5091227;28;20985;-70
2022/05/16 03:20:16;;;;;;;8.40;7.60;;;13.70;69.50;;;12.90;66.10;97979.53;5074718;28;20440;-70
2022/05/16 03:22:43;;;;;;;10.07;8.30;;;13.70;69.00;;;12.69;66.99;97968.16;5075791;28;20483;-70
2022/05/16 03:25:10;;;;;;;8.27;7.57;;;13.60;68.80;;;12.29;67.55;97936.19;5075727;28;20597;-70
2022/05/16 03:27:39;;;;;;;8.40;7.20;;;13.50;69.20;;;12.46;67.80;97955.34;5074324;28;20469;-70
2022/05/16 03:30:09;;;;;;;8.43;7.63;;;13.50;69.70;;;12.34;68.32;97955.28;5074432;28;20497;-70
2022/05/16 03:32:36;;;;;;;7.53;6.83;;;13.40;69.60;;;12.61;68.35;97944.06;5090992;28;20426;-70
2022/05/16 03:35:05;;;;;;;11.20;7.40;;;13.50;70.70;;;12.41;67.54;97938.94;5090793;28;21008;-70
2022/05/16 03:37:33;;;;;;;7.87;7.17;;;13.50;69.70;;;12.29;68.02;97901.81;5074123;28;20467;-70
2022/05/16 03:42:56;;;;;;;9.80;7.23;;;13.40;70.00;;;12.37;68.42;97960.25;5013218;28;20813;-69
2022/05/16 03:45:23;;;;;;;8.20;7.03;;;13.40;70.20;;;12.38;68.16;97959.19;5060075;28;20986;-69
2022/05/16 03:47:51;;;;;;;11.27;7.83;;;13.40;70.30;;;12.38;68.95;97958.34;5073431;28;20978;-69
2022/05/16 03:50:18;;;;;;;9.90;7.53;;;13.40;70.70;;;13.05;68.15;97949.28;5090593;28;20542;-69
2022/05/16 03:52:47;;;;;;;7.63;7.00;;;13.60;71.90;;;13.28;66.06;97948.47;5074037;28;20472;-69
2022/05/16 03:55:16;;;;;;;11.73;7.43;;;13.90;70.50;;;13.26;65.29;97947.84;5090484;28;20985;-71
2022/05/16 03:57:44;;;;;;;10.20;7.00;;;14.10;69.50;;;13.46;65.09;97966.53;5090380;28;20438;-71
2022/05/16 04:00:15;;;;;;;10.20;7.30;;;14.20;69.10;;;13.40;64.36;97969.34;5075384;28;20436;-71
2022/05/16 04:02:43;;;;;;;7.37;6.57;;;14.30;68.10;;;13.43;64.81;97966.19;5090708;28;20497;-71
2022/05/16 04:05:15;;;;;;;10.97;7.00;;;14.30;68.40;;;13.42;64.27;97964.50;5074808;28;20832;-72
2022/05/16 04:07:43;;;;;;;9.87;7.10;;;14.30;67.80;;;13.19;65.11;97966.16;5074726;28;20458;-71
2022/05/16 04:10:12;;;;;;;7.53;6.83;;;14.20;68.00;;;13.41;65.27;97973.72;5075111;28;20449;-71
2022/05/16 04:12:40;;;;;;;7.87;7.17;;;14.20;68.80;;;13.81;64.13;97955.94;5074910;28;20434;-71
2022/05/16 04:15:09;;;;;;;10.47;7.70;;;14.60;68.70;;;14.35;61.16;97977.44;5073999;28;20457;-71
2022/05/16 04:17:37;;;;;;;8.47;7.67;;;15.00;66.60;;;14.70;60.41;97972.91;5074908;28;20513;-71
2022/05/16 04:20:06;;;;;;;7.80;7.00;;;15.50;65.40;;;15.39;58.06;97968.38;5074987;28;20440;-70
2022/05/16 04:22:33;;;;;;;7.77;7.07;;;16.20;63.70;;;15.90;56.51;97981.97;5074992;28;20424;-71
2022/05/16 04:25:01;;;;;;;6.97;6.30;;;16.70;62.10;;;16.38;57.56;97990.50;5073325;28;20565;-70
2022/05/16 04:27:29;;;;;;;8.63;6.23;;;17.10;62.50;;;16.51;54.68;97985.75;5089674;28;20437;-69
2022/05/16 04:29:56;;;;;;;8.60;6.80;;;17.60;60.00;;;17.01;53.34;97986.59;5073153;28;20804;-70
2022/05/16 04:32:23;;;;;;;6.70;6.13;;;18.00;59.10;;;17.69;51.02;97980.56;5074204;28;20946;-71
2022/05/16 04:34:50;;;;;;;9.87;6.97;;;18.90;57.70;;;17.34;51.71;97979.22;5089942;28;20468;-70
2022/05/16 04:37:17;;;;;;;9.43;6.63;;;18.80;56.80;;;16.65;52.98;97934.34;5074276;28;20527;-70
2022/05/16 04:39:44;;;;;;;6.47;5.97;;;18.50;57.00;;;17.21;52.91;97994.13;5074362;28;20476;-70
2022/05/16 04:44:58;;;;;;;8.20;7.40;;;19.30;56.60;;;18.97;48.71;98006.03;5089383;28;20920;-68
2022/05/16 04:47:28;;;;;;;11.07;9.13;;;19.80;55.90;;;18.60;49.04;98017.97;5089472;28;20553;-69
2022/05/16 04:49:55;;;;;;;7.70;6.90;;;20.10;55.00;;;19.33;47.20;98009.91;5073250;28;20519;-69
2022/05/16 04:52:22;;;;;;;6.93;6.17;;;20.50;54.20;;;19.12;47.51;98007.16;5074044;28;20468;-71
2022/05/16 04:54:51;;;;;;;7.87;7.07;;;20.50;53.80;;;18.35;49.80;98008.56;5082006;28;20790;-74
2022/05/16 04:57:19;;;;;;;6.77;6.03;;;20.30;53.80;;;18.22;49.95;98015.34;5081168;28;20448;-75
2022/05/16 04:59:47;;;;;;;8.10;6.30;;;20.10;54.00;;;18.18;50.22;98006.00;5081586;28;20505;-75
2022/05/16 05:02:16;;;;;;;7.30;6.40;;;19.80;54.30;;;18.29;49.96;98009.63;5089520;28;20441;-74
2022/05/16 05:04:44;;;;;;;8.90;6.50;;;19.80;54.20;;;19.25;47.53;98003.91;5073130;28;20442;-75
2022/05/16 05:07:13;;;;;;;6.73;6.13;;;20.60;53.70;;;19.89;45.90;98002.75;5090690;28;20440;-76
2022/05/16 05:15:22;;;;;;;7.00;6.30;;;21.10;52.20;;;18.90;48.23;98000.00;5043267;28;20496;-75
2022/05/16 05:17:51;;;;;;;9.50;6.40;;;20.70;52.70;;;18.58;49.46;98006.47;5046809;28;20457;-76
2022/05/16 05:20:19;;;;;;;6.70;5.73;;;20.10;53.60;;;18.67;49.61;98004.84;5062696;28;20474;-74
2022/05/16 05:22:48;;;;;;;7.70;6.87;;;19.70;54.10;;;18.26;50.46;98012.88;5073715;28;20452;-75
2022/05/16 05:25:18;;;;;;;9.17;6.90;;;19.50;54.10;;;17.43;52.36;98009.59;5073977;28;20524;-75
2022/05/16 05:27:48;;;;;;;7.33;6.27;;;18.90;54.70;;;17.34;52.27;98011.16;5073770;28;20462;-74
2022/05/16 05:30:17;;;;;;;8.93;6.10;;;18.60;55.00;;;17.30;52.95;98008.13;5073628;28;20468;-74
2022/05/16 05:32:46;;;;;;;7.63;6.50;;;18.70;55.20;;;17.80;51.81;98019.69;5073880;28;20524;-74
2022/05/16 05:35:16;;;;;;;9.20;5.90;;;18.70;55.70;;;17.49;52.29;98013.19;5071652;28;20437;-74
2022/05/16 05:37:43;;;;;;;7.17;6.23;;;18.70;55.50;;;17.70;52.18;98008.72;5089822;28;20528;-75
2022/05/16 05:40:12;;;;;;;9.23;6.17;;;18.80;55.70;;;17.33;53.08;98013.06;5073483;28;20515;-74
2022/05/16 05:42:39;;;;;;;10.90;6.67;;;18.70;55.80;;;17.21;53.42;98006.94;5089765;28;20862;-76
2022/05/16 05:45:09;;;;;;;8.87;6.43;;;18.40;56.10;;;17.25;53.61;98008.91;5077451;28;20439;-75
2022/05/16 05:47:36;;;;;;;7.67;6.50;;;18.30;56.30;;;17.27;53.60;98000.44;5077032;28;20436;-74
2022/05/16 05:50:06;;;;;;;10.60;7.40;;;18.20;56.60;;;17.08;54.26;97998.09;5092833;28;20922;-75
2022/05/16 05:52:36;;;;;;;10.30;7.33;;;18.20;56.80;;;16.99;54.79;97989.56;5077500;28;20909;-74
2022/05/16 05:55:05;;;;;;;7.50;6.67;;;18.10;57.20;;;17.40;54.19;98002.75;5077365;28;21055;-72
2022/05/16 05:57:32;;;;;;;8.33;7.53;;;18.50;57.30;;;18.18;52.16;97991.53;5077325;28;20473;-75
2022/05/16 06:00:00;;;;;;;8.30;7.40;;;19.10;56.60;;;18.54;50.98;97994.41;5078613;28;20998;-75
2022/05/16 06:02:27;;;;;;;8.20;7.10;;;19.50;56.20;;;18.98;50.17;97998.66;5077406;28;20505;-75
2022/05/16 06:04:54;;;;;;;7.53;6.63;;;19.90;55.80;;;18.76;50.26;97993.41;5074239;28;20455;-75
2022/05/16 06:07:21;;;;;;;11.83;7.03;;;19.90;55.60;;;18.24;51.64;97996.75;5098116;28;20963;-75
2022/05/16 06:09:50;;;;;;;12.83;6.03;;;19.60;55.50;;;18.33;51.45;97999.81;5097554;28;20469;-75
2022/05/16 06:12:17;;;;;;;12.37;6.70;;;19.60;55.60;;;18.40;51.18;98000.38;5095843;28;20622;-73
2022/05/16 06:14:44;;;;;;;9.13;6.43;;;19.50;55.60;;;18.81;50.11;98005.19;5097477;28;20909;-75
2022/05/16 06:17:12;;;;;;;8.17;6.27;;;19.70;55.60;;;18.65;49.73;97996.09;5095846;28;20445;-74
2022/05/16 06:19:39;;;;;;;10.33;7.00;;;19.60;55.00;;;19.08;49.19;97995.13;5095671;28;20464;-80
2022/05/16 06:22:07;;;;;;;14.97;7.70;;;19.80;55.50;;;19.03;50.30;97995.09;5097596;28;20492;-81
2022/05/16 06:27:20;;;;;;;9.90;6.40;;;20.10;55.50;;;19.72;47.95;98012.13;5096902;28;20438;-82
2022/05/16 06:29:49;;;;;;;9.67;6.30;;;20.40;54.70;;;19.91;48.24;98006.88;5096020;28;20492;-80
2022/05/16 06:32:17;;;;;;;8.57;5.43;;;20.60;55.00;;;19.72;48.31;98001.16;5095645;28;20944;-77
2022/05/16 06:34:44;;;;;;;8.53;6.70;;;20.80;54.40;;;20.19;47.57;98012.06;5095050;28;20518;-74
2022/05/16 06:37:11;;;;;;;7.00;5.20;;;20.90;54.60;;;20.51;46.91;98019.06;5094826;28;20543;-74
2022/05/16 06:39:38;;;;;;;9.10;6.53;;;21.20;54.50;;;20.50;46.21;98018.25;5095706;28;20442;-74
2022/05/16 06:42:06;;;;;;;9.83;6.60;;;21.40;53.90;;;20.44;46.83;98032.28;5096032;28;20455;-74
2022/05/16 06:44:35;;;;;;;8.53;6.17;;;21.40;54.10;;;20.66;46.11;98037.41;5095521;28;20540;-72
2022/05/16 06:47:02;;;;;;;8.30;5.13;;;21.40;53.90;;;20.39;47.14;98030.38;5095400;28;20449;-72
2022/05/16 06:49:29;;;;;;;9.53;6.00;;;21.40;53.90;;;20.44;46.63;98026.78;5095425;28;20461;-72
2022/05/16 06:51:56;;;;;;;6.73;5.90;;;21.30;53.90;;;20.14;47.69;98023.84;5112022;28;20469;-74
2022/05/16 06:54:24;;;;;;;7.38;5.53;;;21.00;54.20;;;20.03;47.61;97995.63;5094217;28;20436;-72
2022/05/16 06:56:51;;;;;;;9.13;5.53;;;21.00;54.40;;;19.95;48.24;98034.59;5096433;28;20178;-73
2022/05/16 06:59:19;;;;;;;7.83;6.20;;;20.90;54.50;;;20.53;47.35;98030.56;5096713;28;20470;-73
2022/05/16 07:01:47;;;;;;;8.53;5.70;;;21.10;54.80;;;20.31;47.58;98030.94;5094348;28;20443;-74
2022/05/16 07:04:14;;;;;;;6.90;6.07;;;21.20;54.40;;;20.60;46.82;98028.38;5095724;28;21016;-73
2022/05/16 07:06:41;;;;;;;8.40;5.77;;;21.40;54.20;;;20.52;46.74;98020.72;5094980;28;20509;-74
2022/05/16 07:09:09;;;;;;;5.50;4.97;;;21.30;54.10;;;20.73;46.68;98029.66;5095844;28;20460;-74
2022/05/16 07:11:36;;;;;;;6.83;5.40;;;21.50;54.10;;;21.00;46.03;98033.13;5094747;28;20494;-83
2022/05/16 07:14:03;;;;;;;6.97;5.07;;;21.70;53.90;;;20.98;45.76;98024.34;5094297;28;20438;-73
2022/05/16 07:16:30;;;;;;;5.40;4.03;;;21.80;53.40;;;20.63;46.16;98041.53;5094353;28;20438;-74
2022/05/16 07:18:59;;;;;;;10.30;5.27;;;21.70;53.20;;;20.78;45.67;98026.09;5094288;28;20469;-74
2022/05/16 07:21:25;;;;;;;6.53;4.53;;;21.70;53.50;;;20.71;45.90;98036.56;5095626;28;20530;-72
2022/05/16 07:23:52;;;;;;;4.97;4.00;;;21.60;53.20;;;20.87;44.93;98040.91;5095609;28;20496;-73
2022/05/16 07:29:05;;;;;;;6.30;4.97;;;21.70;52.90;;;20.94;44.91;98035.91;5096491;28;20502;-72
2022/05/16 07:31:32;;;;;;;4.93;4.40;;;21.80;52.90;;;20.87;44.54;97996.97;5096793;28;20514;-72
2022/05/16 07:34:01;;;;;;;11.13;5.17;;;22.00;52.70;;;21.00;44.83;98030.38;5094526;28;20468;-74
2022/05/16 07:36:29;;;;;;;5.20;3.80;;;22.00;52.70;;;20.93;44.84;98039.75;5093933;28;20923;-74
2022/05/16 07:38:56;;;;;;;4.30;3.90;;;21.90;52.60;;;21.11;44.72;98045.69;5093898;28;20528;-75
2022/05/16 07:41:23;;;;;;;6.50;5.10;;;21.90;52.70;;;21.25;44.33;98039.56;5095592;28;20485;-75
2022/05/16 07:43:50;;;;;;;5.30;4.30;;;22.00;52.50;;;21.60;43.06;98037.66;5093748;28;20496;-74
2022/05/16 07:46:18;;;;;;;4.00;3.70;;;22.30;52.00;;;21.60;43.36;98037.66;5096034;28;20450;-73
2022/05/16 07:48:45;;;;;;;4.40;4.00;;;22.30;51.90;;;21.83;42.89;98036.09;5110468;28;20465;-73
2022/05/16 07:51:14;;;;;;;5.00;4.50;;;22.50;52.00;;;21.91;43.47;98042.91;5094634;28;20529;-73
2022/05/16 07:53:41;;;;;;;4.33;3.77;;;22.70;52.30;;;21.93;42.70;98033.25;5093598;28;20799;-74
2022/05/16 07:56:09;;;;;;;4.57;4.10;;;22.70;51.80;;;22.50;41.42;98040.13;5094745;28;20460;-73
2022/05/16 07:58:36;;;;;;;6.87;4.50;;;23.00;51.40;;;22.45;41.66;98045.66;5095174;28;20929;-73
2022/05/16 08:01:04;;;;;;;5.40;4.73;;;23.20;51.40;;;22.71;41.20;98050.91;5095311;28;20519;-70
2022/05/16 08:03:32;;;;;;;4.43;4.10;;;23.30;51.20;;;22.82;40.79;98041.38;5093400;28;20527;-74
2022/05/16 08:06:00;;;;;;;8.23;3.83;;;23.40;51.00;;;22.89;40.58;98044.59;5095004;28;20502;-74
2022/05/16 08:11:14;;;;;;;5.90;4.50;;;23.80;50.70;;;23.04;40.00;98032.53;5096229;28;20431;-74
2022/05/16 08:13:43;;;;;;;4.90;4.43;;;23.80;50.40;;;23.39;39.25;98043.34;5101459;28;20475;-75
2022/05/16 08:16:10;;;;;;;4.50;3.83;;;24.00;50.20;;;23.44;38.93;98035.00;5113009;28;20457;-74
2022/05/16 08:18:38;;;;;;;5.57;3.90;;;24.20;49.80;;;23.85;38.17;98032.66;5095403;28;20894;-74
2022/05/16 08:21:05;;;;;;;5.80;3.80;;;24.40;49.70;;;23.89;38.41;98031.78;5093589;28;20926;-74
2022/05/16 08:23:34;;;;;;;5.47;4.00;;;24.60;49.60;;;23.77;37.57;98043.28;5094751;28;20439;-75
2022/05/16 08:26:04;;;;;;;4.17;3.77;;;24.60;48.80;;;23.88;36.89;98040.34;5093250;28;20475;-74
2022/05/16 08:28:31;;;;;;;3.57;3.20;;;24.60;48.50;;;23.79;36.60;98033.91;5094449;28;20439;-74
2022/05/16 08:31:00;;;;;;;9.50;3.50;;;24.50;47.80;;;24.51;36.10;98034.50;5093054;28;20447;-74
2022/05/16 08:33:27;;;;;;;4.07;3.63;;;24.90;48.20;;;24.55;36.21;98033.59;5094430;28;20531;-75
2022/05/16 08:41:30;;;;;;;8.47;3.97;;;25.40;48.30;;;24.72;36.31;98032.16;5093844;28;20444;-75
2022/05/16 08:44:08;;;;;;;11.43;3.90;;;25.50;48.10;;;24.58;36.61;98044.03;5093963;28;20443;-75
2022/05/16 08:46:38;;;;;;;4.73;3.40;;;25.20;48.20;;;24.57;36.76;98053.44;5094123;28;20475;-75
2022/05/16 08:49:26;;;;;;;9.90;3.77;;;25.40;48.30;;;24.79;36.48;98059.38;5093572;28;20546;-75
2022/05/16 08:51:59;;;;;;;11.83;4.50;;;25.50;48.20;;;24.80;36.79;98061.03;5093423;28;20530;-75
2022/05/16 08:54:36;;;;;;;7.70;4.20;;;25.60;48.30;;;25.11;36.53;98068.66;5093760;28;20478;-76
2022/05/16 08:57:08;;;;;;;9.10;4.10;;;25.70;48.60;;;25.32;36.84;98071.75;5094425;28;20440;-78
2022/05/16 08:59:41;;;;;;;4.40;4.03;;;25.90;48.50;;;25.22;36.90;98080.28;5094195;28;20511;-73
2022/05/16 09:02:17;;;;;;;7.70;4.37;;;26.00;48.90;;;25.26;36.64;98079.34;5094163;28;20444;-72
2022/05/16 09:04:50;;;;;;;4.60;3.80;;;25.90;48.60;;;25.35;36.75;98071.13;5094050;28;20518;-73
2022/05/16 09:07:24;;;;;;;4.27;3.87;;;26.00;48.80;;;25.16;37.58;98080.41;5092713;28;20463;-73
2022/05/16 09:10:03;;;;;;;4.17;3.77;;;26.10;48.60;;;24.98;37.40;98075.84;5094138;28;20465;-73
2022/05/16 09:12:35;;;;;;;4.57;3.50;;;25.80;48.70;;;24.83;37.28;98075.03;5094528;28;20526;-73
2022/05/16 09:15:20;;;;;;;5.87;3.77;;;25.50;48.70;;;24.63;38.24;98062.44;5094154;28;20438;-74
2022/05/16 09:18:10;;;;;;;6.60;4.47;;;25.50;48.90;;;24.66;38.57;98085.88;5093140;28;20519;-74
2022/05/16 09:20:51;;;;;;;6.43;4.23;;;25.30;49.30;;;24.37;39.48;98075.94;5093644;28;20436;-73
2022/05/16 09:23:39;;;;;;;9.77;4.83;;;25.20;49.60;;;24.22;41.35;98091.66;5092223;28;20446;-79
2022/05/16 09:26:31;;;;;;;5.50;4.20;;;24.90;50.40;;;23.35;45.10;98089.16;5093557;28;20431;-81
2022/05/16 09:29:06;;;;;;;4.73;4.30;;;24.60;52.70;;;22.80;49.06;98093.16;5093976;28;20443;-76
2022/05/16 09:31:40;;;;;;;4.40;4.00;;;24.00;54.80;;;22.61;50.55;98099.44;5092878;28;20486;-80
2022/05/16 09:34:09;;;;;;;6.90;4.20;;;23.60;55.80;;;22.54;48.15;98095.41;5093011;28;20861;-86
2022/05/16 09:36:39;;;;;;;6.03;4.37;;;23.40;55.40;;;22.48;49.04;98102.91;5077477;28;20440;-83
2022/05/16 09:39:09;;;;;;;5.87;3.90;;;23.20;56.00;;;21.93;52.36;98115.78;5093039;28;20435;-84
2022/05/16 09:41:47;;;;;;;6.17;4.10;;;22.90;58.20;;;21.50;53.73;98121.84;5095406;28;20473;-83
2022/05/16 09:44:25;;;;;;;6.00;4.27;;;22.40;58.50;;;21.16;57.36;98130.00;5095085;28;20496;-84
2022/05/16 09:47:16;;;;;;;5.50;3.90;;;22.10;61.60;;;20.78;59.32;98127.66;5094202;28;20530;-84
2022/05/16 09:49:44;;;;;;;5.57;4.20;;;21.70;63.80;;;20.73;58.92;98133.19;5094166;28;20546;-84
2022/05/16 09:52:21;;;;;;;5.80;4.50;;;21.50;64.40;;;20.51;60.11;98131.56;5094192;28;20467;-84
2022/05/16 09:55:02;;;;;;;7.67;4.40;;;21.40;65.60;;;20.97;59.67;98122.41;5095780;28;20438;-84
2022/05/16 09:57:33;;;;;;;6.10;5.10;;;21.50;66.20;;;21.03;60.49;98126.75;5095787;28;20443;-85
2022/05/16 10:00:18;;;;;;;7.80;5.60;;;21.80;67.10;;;21.23;60.59;98136.03;5093003;28;20442;-91
2022/05/16 10:02:56;;;;;;;6.30;5.20;;;21.90;67.50;;;21.08;60.59;98112.19;5096064;28;20436;-86
2022/05/16 10:05:28;;;;;;;7.60;4.80;;;22.00;68.40;;;21.32;59.05;98131.56;5102293;28;20190;-83
2022/05/16 10:08:03;;;;;;;5.40;4.90;;;22.10;66.70;;;21.31;59.07;98129.13;5111068;28;20416;-85
2022/05/16 10:10:36;;;;;;;11.17;5.60;;;22.10;66.80;;;21.62;58.31;98139.91;5112948;28;20468;-86
2022/05/16 10:13:06;;;;;;;9.57;5.03;;;22.20;67.20;;;21.22;59.25;98102.22;5108423;28;20469;-82
2022/05/16 10:15:34;;;;;;;5.23;4.83;;;22.20;67.10;;;21.92;57.36;98129.81;5090288;28;20463;-84
2022/05/16 10:18:07;;;;;;;6.77;5.00;;;22.50;66.30;;;21.65;58.84;98125.59;5116455;28;20429;-86
2022/05/16 10:20:40;;;;;;;6.13;5.43;;;22.60;66.30;;;22.21;57.90;98126.25;5113485;28;20523;-85
2022/05/16 10:23:22;;;;;;;5.17;4.77;;;22.80;67.20;;;22.00;57.67;98126.44;5104121;28;20438;-86
2022/05/16 10:25:52;;;;;;;5.40;4.90;;;22.80;66.20;;;22.56;56.57;98124.28;5096117;28;20517;-85
2022/05/16 10:28:30;;;;;;;7.90;4.93;;;23.10;66.10;;;22.18;56.77;98121.31;5094185;28;20516;-85
2022/05/16 10:33:48;;;;;;;6.30;4.87;;;23.30;64.80;;;22.84;55.50;98110.75;5099768;28;20435;-84
2022/05/16 10:36:26;;;;;;;5.60;4.93;;;23.60;65.30;;;23.37;53.07;98111.75;5098977;28;20446;-84
2022/05/16 10:39:03;;;;;;;8.47;5.30;;;23.90;64.40;;;23.07;53.65;98111.00;5099474;28;20493;-85
2022/05/16 10:41:37;;;;;;;8.03;4.40;;;23.80;63.60;;;23.89;51.49;98124.75;5099063;28;20447;-86
2022/05/16 10:44:18;;;;;;;5.80;4.97;;;24.20;63.30;;;23.77;52.05;98119.69;5102683;28;20434;-83
2022/05/16 10:46:57;;;;;;;5.53;5.10;;;24.50;62.80;;;24.16;50.38;98126.81;5097837;28;20477;-82
2022/05/16 10:49:31;;;;;;;5.53;4.77;;;24.90;61.30;;;23.82;51.26;98127.06;5098175;28;20493;-85
2022/05/16 10:52:07;;;;;;;8.70;5.20;;;24.60;61.40;;;24.44;50.27;98112.22;5098590;28;20429;-84
2022/05/16 10:54:35;;;;;;;7.13;4.80;;;24.80;61.80;;;23.95;50.92;98117.19;5097878;28;20474;-84
2022/05/16 10:57:31;;;;;;;4.93;4.53;;;24.70;61.20;;;23.71;51.97;98116.19;5096430;28;20446;-82
2022/05/16 11:00:13;;;;;;;6.57;4.80;;;24.60;61.40;;;23.28;52.04;98095.06;5096368;28;20482;-82
2022/05/16 11:03:09;;;;;;;5.40;4.90;;;24.30;61.60;;;24.17;50.23;98116.56;5095758;28;20454;-85